Jetersville, Virginia
Current Conditions -  °F | °C
As of 3:35 PM on Saturday 20 Dec 2014 (Local Time) from KW81 Reporting Station
Overcast Overcast  
Wind Chill: 38°   Ceiling: 9500
Heat Index: 38°   Visibility: 10mi
Dew Point: 23°   Wind: 0mph
Humidity: 55%   Direction: NA
Pressure: 30.24"   Gusts: NA
Location:  37.29°N, 78.09°W
Report Text: KW81 202035Z AUTO 00000KT 10SM OVC095 03/M05 A3024 RMK AO1 T00341048
Loading
Personal Weather Stations






























Interactive Weather Map New forecast layout! Learn more

10-Day Weather Forecast

Advertisements
Track Severe Weather on mobile